Time;durP1;ratioP1;P1;durP2;ratioP2;P2;SDS_P1;SDS_P2;PMS_P1;PMS_P2;Temp;Humidity;BMP_temperature;BMP_pressure;BME280_temperature;BME280_humidity;BME280_pressure;Samples;Min_cycle;Max_cycle;Signal;HPM_P1;HPM_P2
2022/09/07 00:00:40;;;;;;;13.13;12.02;;;;;;;;;;4992759;28;20388;-66
2022/09/07 00:03:05;;;;;;;13.07;11.80;;;;;;;;;;4987651;28;20061;-67
2022/09/07 00:05:31;;;;;;;14.45;13.18;;;;;;;;;;4987301;28;20026;-67
2022/09/07 00:07:57;;;;;;;14.30;12.95;;;;;;;;;;4991418;28;20035;-67
2022/09/07 00:10:22;;;;;;;12.43;11.35;;;;;;;;;;4991870;28;20571;-66
2022/09/07 00:12:48;;;;;;;15.57;14.07;;;;;;;;;;4990673;28;20014;-67
2022/09/07 00:15:13;;;;;;;13.80;12.40;;;;;;;;;;4987833;28;20531;-67
2022/09/07 00:17:38;;;;;;;14.07;12.73;;;;;;;;;;5003708;28;20103;-67
2022/09/07 00:20:05;;;;;;;14.40;13.10;;;;;;;;;;4990762;28;20026;-67
2022/09/07 00:22:31;;;;;;;13.57;12.38;;;;;;;;;;4991779;28;20022;-66
2022/09/07 00:24:56;;;;;;;14.95;13.55;;;;;;;;;;4988623;28;20586;-67
2022/09/07 00:27:21;;;;;;;14.65;13.35;;;;;;;;;;4990024;28;20499;-67
2022/09/07 00:29:46;;;;;;;14.55;13.25;;;;;;;;;;4992023;28;20030;-66
2022/09/07 00:32:11;;;;;;;15.27;13.70;;;;;;;;;;4994639;28;20043;-67
2022/09/07 00:34:37;;;;;;;15.38;13.90;;;;;;;;;;4993720;28;20033;-66
2022/09/07 00:37:02;;;;;;;15.35;13.75;;;;;;;;;;4991193;28;20038;-67
2022/09/07 00:39:27;;;;;;;15.43;14.13;;;;;;;;;;4991561;28;20668;-66
2022/09/07 00:41:53;;;;;;;16.08;13.95;;;;;;;;;;4995010;28;20073;-66
2022/09/07 00:44:37;;;;;;;14.13;12.68;;;;;;;;;;4995556;28;20111;-66
2022/09/07 00:47:02;;;;;;;13.07;11.98;;;;;;;;;;4996240;28;20057;-67
2022/09/07 00:49:28;;;;;;;13.80;12.48;;;;;;;;;;4996399;28;20113;-66
2022/09/07 00:51:56;;;;;;;18.58;14.15;;;;;;;;;;4994878;28;20046;-66
2022/09/07 00:54:35;;;;;;;13.38;12.27;;;;;;;;;;4993949;28;20188;-66
2022/09/07 00:57:00;;;;;;;14.05;12.73;;;;;;;;;;4991761;28;20026;-66
2022/09/07 00:59:29;;;;;;;14.65;12.90;;;;;;;;;;4991610;28;20030;-67
2022/09/07 01:01:54;;;;;;;13.23;11.95;;;;;;;;;;4995370;28;20030;-66
2022/09/07 01:04:21;;;;;;;13.73;12.43;;;;;;;;;;4994450;28;20313;-67
2022/09/07 01:06:46;;;;;;;12.90;11.70;;;;;;;;;;4994353;28;20033;-67
2022/09/07 01:09:13;;;;;;;12.75;11.60;;;;;;;;;;4995393;28;20589;-66
2022/09/07 01:11:39;;;;;;;12.68;11.48;;;;;;;;;;4994427;28;20341;-66
2022/09/07 01:14:05;;;;;;;13.27;12.10;;;;;;;;;;4991288;28;20047;-67
2022/09/07 01:16:37;;;;;;;14.93;12.57;;;;;;;;;;4990465;28;20029;-66
2022/09/07 01:19:21;;;;;;;15.70;13.48;;;;;;;;;;4991964;28;20059;-66
2022/09/07 01:21:47;;;;;;;13.77;12.38;;;;;;;;;;4991891;28;20026;-66
2022/09/07 01:24:24;;;;;;;14.40;12.93;;;;;;;;;;4990783;28;20504;-66
2022/09/07 01:26:49;;;;;;;14.40;13.18;;;;;;;;;;4993003;28;20057;-66
2022/09/07 01:29:28;;;;;;;14.00;12.57;;;;;;;;;;4995648;28;20516;-66
2022/09/07 01:32:04;;;;;;;14.13;12.82;;;;;;;;;;4994594;28;20112;-66
2022/09/07 01:34:30;;;;;;;14.93;13.43;;;;;;;;;;4994217;28;20133;-67
2022/09/07 01:37:12;;;;;;;13.90;12.55;;;;;;;;;;4993632;28;20038;-67
2022/09/07 01:39:57;;;;;;;15.02;13.70;;;;;;;;;;4994396;28;20026;-67
2022/09/07 01:42:23;;;;;;;;;;;;;;;;;;4991401;28;20045;-66
2022/09/07 01:45:11;;;;;;;14.43;12.95;;;;;;;;;;4993382;28;20288;-67
2022/09/07 01:47:40;;;;;;;14.98;13.50;;;;;;;;;;4994123;28;20022;-66
2022/09/07 01:50:17;;;;;;;16.05;14.55;;;;;;;;;;4991362;28;20105;-67
2022/09/07 01:52:42;;;;;;;15.38;13.98;;;;;;;;;;4989782;28;20042;-66
2022/09/07 01:55:27;;;;;;;15.77;13.98;;;;;;;;;;5005683;28;20037;-66
2022/09/07 01:57:58;;;;;;;16.10;14.45;;;;;;;;;;4994584;28;20715;-66
2022/09/07 02:00:24;;;;;;;14.40;13.00;;;;;;;;;;4991909;28;20049;-66
2022/09/07 02:02:52;;;;;;;15.18;13.88;;;;;;;;;;4990701;28;20034;-66
2022/09/07 02:05:22;;;;;;;14.23;12.82;;;;;;;;;;4988400;28;20124;-66
2022/09/07 02:07:51;;;;;;;14.93;13.50;;;;;;;;;;4992251;28;20034;-66
2022/09/07 02:10:25;;;;;;;17.52;13.77;;;;;;;;;;4993546;28;20120;-66
2022/09/07 02:13:11;;;;;;;16.48;14.80;;;;;;;;;;4990021;28;20032;-66
2022/09/07 02:15:36;;;;;;;;;;;;;;;;;;4988451;28;20038;-66
2022/09/07 02:18:03;;;;;;;14.07;12.82;;;;;;;;;;4991184;28;19916;-66
2022/09/07 02:20:33;;;;;;;14.98;13.45;;;;;;;;;;4993247;28;20478;-65
2022/09/07 02:23:00;;;;;;;16.35;14.63;;;;;;;;;;4992019;28;20022;-65
2022/09/07 02:25:28;;;;;;;15.13;13.63;;;;;;;;;;4988705;28;20026;-66
2022/09/07 02:27:56;;;;;;;17.15;15.02;;;;;;;;;;4989063;28;20081;-65
2022/09/07 02:30:21;;;;;;;16.05;14.55;;;;;;;;;;4991034;28;20030;-66
2022/09/07 02:32:46;;;;;;;16.55;14.95;;;;;;;;;;4992776;28;20033;-66
2022/09/07 02:35:12;;;;;;;15.88;14.35;;;;;;;;;;4992936;28;20038;-66
2022/09/07 02:37:37;;;;;;;15.52;14.05;;;;;;;;;;4991936;28;20501;-65
2022/09/07 02:40:03;;;;;;;14.43;12.88;;;;;;;;;;4988160;28;20037;-65
2022/09/07 02:42:31;;;;;;;13.93;12.73;;;;;;;;;;4987928;28;20034;-64
2022/09/07 02:44:56;;;;;;;15.55;13.20;;;;;;;;;;4990916;28;20038;-65
2022/09/07 02:47:38;;;;;;;16.77;13.65;;;;;;;;;;4993504;28;20371;-64
2022/09/07 02:50:26;;;;;;;15.35;13.80;;;;;;;;;;4993519;28;20038;-64
2022/09/07 02:52:58;;;;;;;17.13;14.05;;;;;;;;;;4992782;28;20034;-61
2022/09/07 02:55:43;;;;;;;15.38;13.98;;;;;;;;;;4990739;28;20376;-72
2022/09/07 02:58:24;;;;;;;15.45;13.90;;;;;;;;;;4981952;28;20034;-69
2022/09/07 03:00:49;;;;;;;18.35;13.00;;;;;;;;;;4991702;28;20029;-68
2022/09/07 03:03:17;;;;;;;15.45;13.88;;;;;;;;;;4989813;28;20015;-67
2022/09/07 03:05:46;;;;;;;16.15;14.38;;;;;;;;;;4989005;28;20097;-67
2022/09/07 03:08:14;;;;;;;18.33;14.63;;;;;;;;;;4990343;28;20122;-68
2022/09/07 03:10:40;;;;;;;16.15;14.55;;;;;;;;;;4993957;28;20049;-68
2022/09/07 03:13:05;;;;;;;14.88;13.52;;;;;;;;;;4991451;28;20026;-68
2022/09/07 03:15:30;;;;;;;15.18;13.40;;;;;;;;;;4988416;28;20026;-68
2022/09/07 03:17:55;;;;;;;18.42;14.23;;;;;;;;;;4989170;28;20071;-68
2022/09/07 03:20:21;;;;;;;15.48;14.07;;;;;;;;;;4989030;28;20034;-68
2022/09/07 03:22:47;;;;;;;14.52;13.02;;;;;;;;;;4992657;28;20499;-68
2022/09/07 03:25:13;;;;;;;17.08;15.48;;;;;;;;;;4989318;28;20330;-67
2022/09/07 03:27:38;;;;;;;15.38;13.88;;;;;;;;;;4987928;28;20058;-67
2022/09/07 03:30:04;;;;;;;19.15;17.15;;;;;;;;;;4992006;28;20029;-68
2022/09/07 03:32:33;;;;;;;20.40;18.35;;;;;;;;;;4992350;28;20026;-68
2022/09/07 03:34:59;;;;;;;18.73;16.73;;;;;;;;;;4992204;28;20026;-69
2022/09/07 03:37:24;;;;;;;19.27;17.20;;;;;;;;;;4991351;28;20044;-68
2022/09/07 03:39:49;;;;;;;17.98;15.48;;;;;;;;;;4987810;28;20018;-68
2022/09/07 03:42:15;;;;;;;15.75;14.18;;;;;;;;;;4988115;28;20029;-68
2022/09/07 03:44:40;;;;;;;14.98;13.68;;;;;;;;;;4990286;28;20370;-67
2022/09/07 03:47:05;;;;;;;16.42;14.82;;;;;;;;;;4992648;28;20029;-68
2022/09/07 03:49:30;;;;;;;18.00;15.90;;;;;;;;;;4992064;28;20388;-67
2022/09/07 03:51:56;;;;;;;16.33;14.73;;;;;;;;;;4991357;28;20038;-68
2022/09/07 03:54:21;;;;;;;16.25;14.38;;;;;;;;;;4991662;28;20220;-69
2022/09/07 03:56:47;;;;;;;16.35;14.45;;;;;;;;;;4995229;28;20432;-68
2022/09/07 03:59:12;;;;;;;17.83;16.13;;;;;;;;;;4988532;28;20148;-68
2022/09/07 04:01:38;;;;;;;17.70;15.63;;;;;;;;;;4986969;28;20380;-68
2022/09/07 04:04:04;;;;;;;17.15;15.35;;;;;;;;;;4990368;28;20038;-68
2022/09/07 04:06:30;;;;;;;16.55;14.95;;;;;;;;;;4991027;28;20374;-68
2022/09/07 04:08:55;;;;;;;15.07;13.57;;;;;;;;;;4990304;28;20097;-68
2022/09/07 04:11:21;;;;;;;16.80;15.18;;;;;;;;;;4990520;28;20081;-68
2022/09/07 04:13:46;;;;;;;16.80;15.10;;;;;;;;;;4991042;28;20033;-68
2022/09/07 04:16:18;;;;;;;17.20;15.52;;;;;;;;;;4991300;28;20075;-69
2022/09/07 04:18:44;;;;;;;15.23;13.73;;;;;;;;;;4991500;28;20027;-68
2022/09/07 04:21:09;;;;;;;17.98;16.15;;;;;;;;;;4989677;28;20029;-68
2022/09/07 04:23:41;;;;;;;20.20;17.98;;;;;;;;;;4986886;28;20520;-68
2022/09/07 04:26:12;;;;;;;21.88;18.90;;;;;;;;;;4988700;28;20026;-68
2022/09/07 04:28:37;;;;;;;19.23;17.25;;;;;;;;;;4990360;28;20477;-69
2022/09/07 04:31:02;;;;;;;20.92;18.60;;;;;;;;;;4994522;28;20038;-69
2022/09/07 04:33:29;;;;;;;21.27;19.08;;;;;;;;;;4992086;28;20355;-68
2022/09/07 04:35:54;;;;;;;20.13;17.98;;;;;;;;;;4989752;28;20559;-65
2022/09/07 04:38:20;;;;;;;21.80;19.23;;;;;;;;;;4987469;28;20026;-67
2022/09/07 04:40:45;;;;;;;20.65;18.50;;;;;;;;;;4991785;28;20468;-68
2022/09/07 04:43:11;;;;;;;22.23;19.92;;;;;;;;;;4990159;28;20061;-68
2022/09/07 04:45:37;;;;;;;24.45;21.75;;;;;;;;;;4987017;28;20718;-69
2022/09/07 04:48:03;;;;;;;23.02;20.58;;;;;;;;;;4986846;28;20034;-67
2022/09/07 04:50:28;;;;;;;23.48;20.52;;;;;;;;;;4990665;28;20038;-68
2022/09/07 04:52:54;;;;;;;25.40;22.63;;;;;;;;;;4990769;28;20026;-68
2022/09/07 04:55:19;;;;;;;24.15;21.58;;;;;;;;;;4986701;28;20045;-68
2022/09/07 04:57:47;;;;;;;27.42;24.27;;;;;;;;;;4987741;28;20037;-67
2022/09/07 05:00:13;;;;;;;33.92;27.50;;;;;;;;;;4986684;28;20101;-68
2022/09/07 05:02:38;;;;;;;31.75;25.58;;;;;;;;;;4988920;28;20084;-65
2022/09/07 05:05:04;;;;;;;27.98;24.80;;;;;;;;;;4988737;28;20451;-64
2022/09/07 05:07:30;;;;;;;26.85;23.90;;;;;;;;;;4986753;28;20032;-62
2022/09/07 05:09:56;;;;;;;27.50;24.48;;;;;;;;;;4990257;28;20030;-67
2022/09/07 05:12:21;;;;;;;30.70;26.77;;;;;;;;;;4992919;28;20120;-69
2022/09/07 05:14:46;;;;;;;33.60;27.90;;;;;;;;;;4990966;28;20427;-69
2022/09/07 05:17:12;;;;;;;30.35;25.83;;;;;;;;;;4991951;28;20042;-68
2022/09/07 05:19:37;;;;;;;29.50;24.52;;;;;;;;;;4993920;28;20076;-68
2022/09/07 05:22:02;;;;;;;32.55;26.67;;;;;;;;;;4991273;28;20603;-67
2022/09/07 05:24:27;;;;;;;33.85;26.95;;;;;;;;;;4994174;28;20472;-70
2022/09/07 05:26:53;;;;;;;36.03;28.38;;;;;;;;;;5001974;28;20062;-69
2022/09/07 05:29:18;;;;;;;30.10;23.98;;;;;;;;;;4994893;28;20022;-68
2022/09/07 05:31:43;;;;;;;29.70;25.13;;;;;;;;;;4995312;28;20034;-70
2022/09/07 05:34:09;;;;;;;31.38;27.33;;;;;;;;;;4987630;28;20156;-69
2022/09/07 05:36:35;;;;;;;31.95;26.25;;;;;;;;;;4995152;28;20038;-69
2022/09/07 05:39:00;;;;;;;32.90;23.52;;;;;;;;;;4995207;28;20100;-63
2022/09/07 05:41:26;;;;;;;33.88;26.27;;;;;;;;;;4993874;28;20508;-63
2022/09/07 05:43:51;;;;;;;34.65;27.05;;;;;;;;;;4994187;28;20384;-69
2022/09/07 05:46:17;;;;;;;29.88;24.75;;;;;;;;;;4994863;28;20072;-69
2022/09/07 05:48:42;;;;;;;30.85;24.45;;;;;;;;;;5001915;28;20034;-69
2022/09/07 05:51:09;;;;;;;33.15;24.08;;;;;;;;;;4989313;28;20125;-68
2022/09/07 05:53:35;;;;;;;30.48;24.83;;;;;;;;;;4988906;28;20028;-69
2022/09/07 05:56:00;;;;;;;28.48;23.55;;;;;;;;;;4991677;28;20033;-69
2022/09/07 05:58:26;;;;;;;25.15;21.73;;;;;;;;;;4990494;28;20468;-69
2022/09/07 06:00:52;;;;;;;22.60;20.23;;;;;;;;;;4990775;28;20072;-69
2022/09/07 06:03:17;;;;;;;23.60;20.92;;;;;;;;;;4989928;28;20132;-69
2022/09/07 06:05:42;;;;;;;25.27;22.27;;;;;;;;;;4990753;28;20031;-69
2022/09/07 06:08:08;;;;;;;27.60;21.42;;;;;;;;;;4991692;28;20030;-69
2022/09/07 06:10:34;;;;;;;24.20;20.20;;;;;;;;;;4991415;28;20026;-69
2022/09/07 06:13:00;;;;;;;22.15;19.67;;;;;;;;;;5000270;28;20018;-67
2022/09/07 06:15:25;;;;;;;22.48;19.58;;;;;;;;;;4989227;28;20123;-67
2022/09/07 06:17:50;;;;;;;22.48;20.13;;;;;;;;;;4989384;28;20022;-67
2022/09/07 06:20:15;;;;;;;20.95;18.77;;;;;;;;;;4990101;28;20025;-67
2022/09/07 06:22:41;;;;;;;22.35;19.42;;;;;;;;;;4990635;28;20802;-68
2022/09/07 06:25:06;;;;;;;24.13;19.33;;;;;;;;;;4988170;28;20017;-68
2022/09/07 06:27:31;;;;;;;19.55;16.58;;;;;;;;;;4989902;28;20129;-68
2022/09/07 06:29:57;;;;;;;20.65;17.27;;;;;;;;;;4991590;28;20031;-69
2022/09/07 06:32:22;;;;;;;19.15;17.17;;;;;;;;;;4993018;28;20373;-66
2022/09/07 06:34:47;;;;;;;18.95;16.85;;;;;;;;;;4994033;28;20029;-68
2022/09/07 06:37:13;;;;;;;19.83;17.73;;;;;;;;;;4989659;28;20153;-66
2022/09/07 06:39:38;;;;;;;19.15;16.17;;;;;;;;;;4987396;28;20522;-67
2022/09/07 06:42:03;;;;;;;22.50;20.08;;;;;;;;;;4990005;28;20096;-67
2022/09/07 06:44:29;;;;;;;18.95;16.98;;;;;;;;;;4991938;28;20027;-67
2022/09/07 06:46:54;;;;;;;19.73;17.73;;;;;;;;;;4989945;28;20030;-68
2022/09/07 06:49:19;;;;;;;20.95;18.75;;;;;;;;;;4988709;28;20032;-68
2022/09/07 06:51:45;;;;;;;22.17;17.90;;;;;;;;;;4990117;28;20045;-67
2022/09/07 06:54:10;;;;;;;18.02;16.15;;;;;;;;;;4987622;28;20517;-62
2022/09/07 06:56:35;;;;;;;19.95;17.90;;;;;;;;;;4990510;28;20113;-67
2022/09/07 06:59:00;;;;;;;22.77;20.33;;;;;;;;;;4987483;28;20116;-67
2022/09/07 07:01:27;;;;;;;19.73;17.55;;;;;;;;;;4990943;28;20033;-67
2022/09/07 07:03:53;;;;;;;21.83;17.95;;;;;;;;;;4994601;28;20029;-67
2022/09/07 07:06:18;;;;;;;20.95;18.75;;;;;;;;;;4990261;28;20326;-67
2022/09/07 07:08:44;;;;;;;30.58;19.10;;;;;;;;;;4989049;28;20041;-68
2022/09/07 07:11:14;;;;;;;20.85;18.52;;;;;;;;;;4990372;28;20038;-70
2022/09/07 07:13:40;;;;;;;26.40;20.02;;;;;;;;;;4990046;28;20082;-71
2022/09/07 07:16:07;;;;;;;22.67;18.00;;;;;;;;;;4988622;28;20049;-67
2022/09/07 07:18:33;;;;;;;23.48;17.67;;;;;;;;;;4993267;28;20117;-69
2022/09/07 07:21:06;;;;;;;18.92;16.40;;;;;;;;;;4988436;28;20068;-65
2022/09/07 07:23:33;;;;;;;19.88;17.77;;;;;;;;;;4988852;28;20480;-66
2022/09/07 07:26:05;;;;;;;21.90;19.30;;;;;;;;;;4991207;28;20030;-65
2022/09/07 07:28:31;;;;;;;18.52;16.13;;;;;;;;;;4992664;28;20030;-66
2022/09/07 07:30:57;;;;;;;19.42;17.33;;;;;;;;;;4991894;28;20491;-66
2022/09/07 07:33:23;;;;;;;19.15;17.15;;;;;;;;;;4993039;28;20116;-67
2022/09/07 07:35:48;;;;;;;20.20;16.15;;;;;;;;;;4991173;28;20521;-67
2022/09/07 07:38:13;;;;;;;18.95;17.02;;;;;;;;;;4988639;28;20108;-67
2022/09/07 07:40:39;;;;;;;20.50;17.30;;;;;;;;;;4988949;28;20518;-59
2022/09/07 07:43:04;;;;;;;21.23;18.35;;;;;;;;;;4992248;28;20030;-63
2022/09/07 07:45:29;;;;;;;20.50;15.90;;;;;;;;;;4989266;28;20030;-67
2022/09/07 07:47:54;;;;;;;17.80;15.93;;;;;;;;;;4987746;28;20084;-63
2022/09/07 07:50:20;;;;;;;21.73;17.63;;;;;;;;;;4992178;28;20031;-64
2022/09/07 07:52:45;;;;;;;21.02;18.42;;;;;;;;;;4990820;28;20836;-65
2022/09/07 07:55:10;;;;;;;19.13;16.35;;;;;;;;;;4988029;28;20447;-65
2022/09/07 07:57:36;;;;;;;21.13;18.30;;;;;;;;;;4987931;28;20029;-62
2022/09/07 08:00:01;;;;;;;17.38;15.63;;;;;;;;;;4988776;28;20033;-66
2022/09/07 08:02:26;;;;;;;17.88;15.95;;;;;;;;;;4991932;28;20549;-63
2022/09/07 08:04:52;;;;;;;22.67;17.70;;;;;;;;;;5000148;28;20026;-63
2022/09/07 08:07:18;;;;;;;18.90;17.08;;;;;;;;;;4990887;28;20032;-63
2022/09/07 08:09:44;;;;;;;17.08;15.35;;;;;;;;;;4987918;28;20031;-64
2022/09/07 08:12:11;;;;;;;19.52;17.00;;;;;;;;;;4987327;28;20034;-64
2022/09/07 08:14:40;;;;;;;19.50;17.30;;;;;;;;;;4989288;28;20064;-65
2022/09/07 08:17:09;;;;;;;16.63;15.02;;;;;;;;;;4987535;28;20045;-64
2022/09/07 08:19:34;;;;;;;17.23;15.55;;;;;;;;;;4988650;28;20507;-64
2022/09/07 08:21:59;;;;;;;17.00;15.40;;;;;;;;;;4988838;28;20042;-60
2022/09/07 08:24:24;;;;;;;21.25;19.10;;;;;;;;;;4987340;28;20049;-59
2022/09/07 08:26:49;;;;;;;16.67;14.88;;;;;;;;;;4987187;28;20778;-66
2022/09/07 08:29:15;;;;;;;17.60;15.68;;;;;;;;;;4989231;28;20027;-64
2022/09/07 08:31:40;;;;;;;18.63;16.73;;;;;;;;;;4991322;28;20049;-64
2022/09/07 08:34:06;;;;;;;21.83;16.95;;;;;;;;;;4991617;28;20172;-63
2022/09/07 08:36:32;;;;;;;23.17;17.27;;;;;;;;;;5021689;28;20085;-65
2022/09/07 08:38:58;;;;;;;18.85;16.55;;;;;;;;;;4992357;28;20589;-64
2022/09/07 08:41:42;;;;;;;20.23;17.45;;;;;;;;;;4991254;28;20125;-64
2022/09/07 08:44:13;;;;;;;18.33;16.42;;;;;;;;;;4992907;28;20076;-64
2022/09/07 08:46:44;;;;;;;17.05;14.77;;;;;;;;;;4988167;28;20025;-63
2022/09/07 08:49:19;;;;;;;16.95;15.15;;;;;;;;;;4991442;28;20026;-63
2022/09/07 08:51:45;;;;;;;;;;;;;;;;;;4992163;28;20049;-63
2022/09/07 08:54:11;;;;;;;20.88;14.18;;;;;;;;;;4991629;28;19916;-63
2022/09/07 08:56:38;;;;;;;16.42;14.73;;;;;;;;;;4994484;28;20037;-64
2022/09/07 08:59:17;;;;;;;16.27;13.88;;;;;;;;;;4994042;28;20026;-64
2022/09/07 09:01:43;;;;;;;18.40;16.45;;;;;;;;;;4994792;28;20028;-63
2022/09/07 09:04:25;;;;;;;14.15;12.65;;;;;;;;;;4996425;28;20030;-63
2022/09/07 09:06:53;;;;;;;15.45;12.85;;;;;;;;;;5024757;28;20209;-68
2022/09/07 09:09:37;;;;;;;14.15;12.68;;;;;;;;;;4990208;28;20141;-65
2022/09/07 09:12:12;;;;;;;11.23;9.60;;;;;;;;;;4992749;28;20148;-67
2022/09/07 09:14:52;;;;;;;14.88;10.38;;;;;;;;;;4992381;28;20037;-65
2022/09/07 09:17:17;;;;;;;11.75;10.65;;;;;;;;;;4991409;28;20084;-64
2022/09/07 09:20:07;;;;;;;15.55;10.95;;;;;;;;;;4995816;28;20034;-64
2022/09/07 09:22:33;;;;;;;15.15;11.48;;;;;;;;;;4990514;28;20438;-65
2022/09/07 09:25:20;;;;;;;17.38;10.50;;;;;;;;;;4990206;28;20204;-65
2022/09/07 09:27:47;;;;;;;10.88;9.32;;;;;;;;;;4991925;28;20050;-65
2022/09/07 09:30:16;;;;;;;9.25;8.38;;;;;;;;;;4993917;28;20080;-64
2022/09/07 09:32:43;;;;;;;10.55;8.70;;;;;;;;;;4990753;28;20038;-64
2022/09/07 09:35:18;;;;;;;10.10;8.30;;;;;;;;;;4988284;28;20030;-64
2022/09/07 09:37:43;;;;;;;10.63;9.63;;;;;;;;;;4989294;28;20129;-65
2022/09/07 09:40:19;;;;;;;9.52;8.63;;;;;;;;;;4990247;28;20040;-64
2022/09/07 09:42:45;;;;;;;9.82;8.95;;;;;;;;;;4990112;28;20080;-68
2022/09/07 09:45:15;;;;;;;11.05;9.95;;;;;;;;;;5024478;28;20058;-69
2022/09/07 09:47:40;;;;;;;10.10;9.13;;;;;;;;;;4989274;28;20034;-65
2022/09/07 09:50:14;;;;;;;10.65;9.70;;;;;;;;;;4989724;28;20374;-66
2022/09/07 09:52:44;;;;;;;8.27;7.53;;;;;;;;;;4990263;28;20445;-66
2022/09/07 09:55:17;;;;;;;12.82;9.05;;;;;;;;;;4991363;28;20055;-65
2022/09/07 09:57:52;;;;;;;10.75;9.38;;;;;;;;;;4993663;28;20057;-67
2022/09/07 10:00:19;;;;;;;10.25;7.85;;;;;;;;;;4991246;28;20023;-66
2022/09/07 10:03:03;;;;;;;9.95;9.05;;;;;;;;;;4988572;28;20045;-66
2022/09/07 10:05:34;;;;;;;9.23;8.50;;;;;;;;;;4996922;28;20053;-66
2022/09/07 10:08:02;;;;;;;9.15;8.20;;;;;;;;;;4990398;28;20027;-65
2022/09/07 10:10:28;;;;;;;9.00;7.95;;;;;;;;;;4994053;28;20026;-67
2022/09/07 10:12:54;;;;;;;9.70;8.85;;;;;;;;;;4993737;28;20042;-68
2022/09/07 10:15:26;;;;;;;10.85;9.77;;;;;;;;;;4989334;28;20456;-67
2022/09/07 10:17:51;;;;;;;9.73;8.73;;;;;;;;;;4991613;28;20025;-67
2022/09/07 10:20:16;;;;;;;9.80;9.00;;;;;;;;;;4991225;28;20017;-67
2022/09/07 10:22:55;;;;;;;8.95;8.25;;;;;;;;;;4988652;28;20428;-66
2022/09/07 10:25:27;;;;;;;8.13;7.40;;;;;;;;;;4990778;28;20096;-66
2022/09/07 10:28:04;;;;;;;8.70;7.90;;;;;;;;;;4988848;28;20480;-66
2022/09/07 10:30:34;;;;;;;8.80;8.10;;;;;;;;;;4988683;28;20046;-66
2022/09/07 10:33:00;;;;;;;8.65;7.95;;;;;;;;;;4991647;28;20041;-65
2022/09/07 10:35:41;;;;;;;8.50;7.90;;;;;;;;;;4988683;28;20518;-66
2022/09/07 10:38:17;;;;;;;8.00;7.20;;;;;;;;;;4988442;28;20455;-64
2022/09/07 10:40:44;;;;;;;12.75;8.25;;;;;;;;;;4993446;28;20465;-69
2022/09/07 10:43:15;;;;;;;8.35;7.55;;;;;;;;;;4992251;28;20029;-70
2022/09/07 10:45:46;;;;;;;8.98;8.10;;;;;;;;;;4992350;28;20034;-70
2022/09/07 10:48:11;;;;;;;7.50;6.90;;;;;;;;;;4992447;28;20369;-70
2022/09/07 10:50:56;;;;;;;8.90;8.10;;;;;;;;;;4992504;28;20018;-70
2022/09/07 10:53:22;;;;;;;9.18;8.30;;;;;;;;;;4992732;28;20536;-69
2022/09/07 10:56:08;;;;;;;9.15;8.45;;;;;;;;;;4992793;28;20037;-70
2022/09/07 10:58:39;;;;;;;8.98;8.23;;;;;;;;;;4993211;28;20030;-69
2022/09/07 11:01:30;;;;;;;9.15;8.45;;;;;;;;;;4989246;28;20022;-69
2022/09/07 11:04:01;;;;;;;9.35;8.45;;;;;;;;;;4989768;28;20025;-69
2022/09/07 11:06:31;;;;;;;8.90;8.18;;;;;;;;;;4987860;28;20035;-70
2022/09/07 11:09:15;;;;;;;8.13;7.53;;;;;;;;;;4987269;28;20439;-70
2022/09/07 11:11:45;;;;;;;7.55;6.90;;;;;;;;;;4992769;28;20109;-65
2022/09/07 11:14:12;;;;;;;7.68;7.10;;;;;;;;;;4992342;28;20021;-65
2022/09/07 11:16:38;;;;;;;9.00;8.20;;;;;;;;;;4990736;28;20800;-63
2022/09/07 11:19:11;;;;;;;8.70;7.95;;;;;;;;;;4991075;28;20108;-63
2022/09/07 11:21:40;;;;;;;8.23;7.68;;;;;;;;;;4991729;28;20034;-63
2022/09/07 11:24:10;;;;;;;7.55;6.90;;;;;;;;;;4991236;28;20030;-65
2022/09/07 11:26:41;;;;;;;7.55;6.95;;;;;;;;;;4990371;28;20058;-63
2022/09/07 11:29:11;;;;;;;8.63;7.93;;;;;;;;;;4986846;28;20448;-63
2022/09/07 11:31:56;;;;;;;8.30;7.53;;;;;;;;;;4990638;28;20604;-64
2022/09/07 11:34:29;;;;;;;8.38;7.68;;;;;;;;;;4987733;28;20370;-60
2022/09/07 11:37:13;;;;;;;7.53;6.88;;;;;;;;;;4990004;28;20440;-60
2022/09/07 11:39:43;;;;;;;9.23;6.77;;;;;;;;;;4987200;28;20108;-65
2022/09/07 11:42:25;;;;;;;7.72;7.22;;;;;;;;;;4988216;28;20531;-67
2022/09/07 11:44:59;;;;;;;7.50;7.00;;;;;;;;;;4987930;28;20026;-66
2022/09/07 11:47:24;;;;;;;;;;;;;;;;;;4989026;28;20034;-65
2022/09/07 11:49:53;;;;;;;8.65;8.05;;;;;;;;;;4990950;28;19914;-66
2022/09/07 11:52:21;;;;;;;7.93;7.22;;;;;;;;;;4992637;28;20039;-66
2022/09/07 11:54:52;;;;;;;8.32;7.55;;;;;;;;;;4991120;28;20037;-66
2022/09/07 11:57:32;;;;;;;8.57;7.88;;;;;;;;;;4989349;28;20026;-66
2022/09/07 12:00:13;;;;;;;7.85;7.15;;;;;;;;;;4985938;28;20028;-66
2022/09/07 12:02:38;;;;;;;8.05;7.35;;;;;;;;;;4986620;28;20022;-66
2022/09/07 12:05:26;;;;;;;7.82;7.25;;;;;;;;;;4985686;28;20387;-66
2022/09/07 12:08:04;;;;;;;7.32;6.72;;;;;;;;;;4988052;28;20058;-66
2022/09/07 12:10:39;;;;;;;7.88;7.28;;;;;;;;;;4986475;28;20641;-66
2022/09/07 12:13:04;;;;;;;;;;;;;;;;;;4987602;28;20252;-66
2022/09/07 12:15:43;;;;;;;8.00;7.35;;;;;;;;;;4988618;28;19995;-66
2022/09/07 12:18:20;;;;;;;8.80;8.02;;;;;;;;;;4992790;28;20143;-66
2022/09/07 12:20:46;;;;;;;7.35;6.85;;;;;;;;;;4987180;28;20030;-68
2022/09/07 12:23:15;;;;;;;8.13;7.40;;;;;;;;;;4991431;28;20133;-66
2022/09/07 12:25:40;;;;;;;7.97;7.38;;;;;;;;;;4991838;28;20027;-66
2022/09/07 12:28:11;;;;;;;9.35;6.93;;;;;;;;;;4993779;28;20046;-66
2022/09/07 12:30:37;;;;;;;7.65;6.95;;;;;;;;;;4989497;28;20053;-66
2022/09/07 12:33:05;;;;;;;7.57;6.85;;;;;;;;;;4992298;28;20038;-66
2022/09/07 12:35:37;;;;;;;9.85;7.38;;;;;;;;;;4992358;28;20035;-66
2022/09/07 12:38:05;;;;;;;11.75;7.65;;;;;;;;;;4990629;28;20038;-65
2022/09/07 12:40:32;;;;;;;10.18;7.47;;;;;;;;;;4991202;28;20388;-62
2022/09/07 12:43:15;;;;;;;8.10;7.45;;;;;;;;;;5022858;28;20080;-62
2022/09/07 12:45:41;;;;;;;8.23;7.57;;;;;;;;;;4994471;28;20355;-64
2022/09/07 12:48:15;;;;;;;6.90;6.50;;;;;;;;;;4994090;28;20152;-63
2022/09/07 12:50:48;;;;;;;7.88;7.03;;;;;;;;;;4995663;28;20014;-64
2022/09/07 12:53:32;;;;;;;6.85;6.43;;;;;;;;;;4992234;28;20164;-66
2022/09/07 12:55:57;;;;;;;7.53;6.78;;;;;;;;;;4992252;28;20026;-67
2022/09/07 12:58:22;;;;;;;7.95;7.35;;;;;;;;;;4993304;28;20675;-67
2022/09/07 13:00:54;;;;;;;8.70;6.88;;;;;;;;;;4990396;28;20026;-68
2022/09/07 13:03:37;;;;;;;7.15;6.65;;;;;;;;;;4993687;28;20037;-68
2022/09/07 13:06:20;;;;;;;7.20;6.55;;;;;;;;;;4994919;28;20034;-68
2022/09/07 13:09:04;;;;;;;7.85;7.35;;;;;;;;;;4990772;28;20038;-68
2022/09/07 13:11:33;;;;;;;7.18;6.03;;;;;;;;;;4993215;28;20035;-67
2022/09/07 13:14:01;;;;;;;8.88;7.00;;;;;;;;;;4995962;28;20424;-68
2022/09/07 13:16:28;;;;;;;7.82;7.18;;;;;;;;;;4992531;28;20569;-68
2022/09/07 13:18:53;;;;;;;6.70;6.10;;;;;;;;;;4991067;28;20413;-68
2022/09/07 13:21:36;;;;;;;7.50;6.82;;;;;;;;;;4991430;28;20038;-68
2022/09/07 13:24:17;;;;;;;8.05;6.85;;;;;;;;;;4994211;28;20688;-67
2022/09/07 13:27:06;;;;;;;7.35;6.63;;;;;;;;;;4995110;28;20136;-68
2022/09/07 13:29:36;;;;;;;7.85;7.28;;;;;;;;;;4995889;28;20556;-67
2022/09/07 13:32:05;;;;;;;7.70;7.15;;;;;;;;;;4995523;28;20026;-68
2022/09/07 13:34:33;;;;;;;8.43;7.13;;;;;;;;;;4994376;28;20022;-67
2022/09/07 13:36:59;;;;;;;8.20;7.38;;;;;;;;;;4993060;28;20030;-67
2022/09/07 13:39:25;;;;;;;9.07;6.72;;;;;;;;;;5022940;28;20058;-68
2022/09/07 13:41:53;;;;;;;8.20;7.47;;;;;;;;;;4990234;28;20516;-67
2022/09/07 13:44:20;;;;;;;7.47;6.97;;;;;;;;;;4990294;28;20524;-68
2022/09/07 13:46:55;;;;;;;6.97;6.38;;;;;;;;;;4993290;28;20026;-69
2022/09/07 13:49:32;;;;;;;8.10;7.50;;;;;;;;;;4995401;28;20030;-69
2022/09/07 13:52:12;;;;;;;7.30;6.60;;;;;;;;;;4992898;28;20030;-69
2022/09/07 13:54:43;;;;;;;7.15;6.47;;;;;;;;;;4992526;28;20268;-69
2022/09/07 13:57:26;;;;;;;6.50;5.90;;;;;;;;;;5000966;28;20050;-70
2022/09/07 13:59:51;;;;;;;7.20;6.50;;;;;;;;;;4995384;28;20034;-68
2022/09/07 14:02:20;;;;;;;6.90;6.38;;;;;;;;;;4994564;28;20104;-68
2022/09/07 14:04:47;;;;;;;7.50;7.05;;;;;;;;;;4994291;28;20022;-68
2022/09/07 14:07:13;;;;;;;6.88;6.05;;;;;;;;;;4994100;28;20614;-67
2022/09/07 14:09:39;;;;;;;6.55;6.00;;;;;;;;;;4993812;28;20020;-68
2022/09/07 14:12:14;;;;;;;7.13;6.28;;;;;;;;;;4993178;28;20034;-60
2022/09/07 14:14:39;;;;;;;7.85;6.30;;;;;;;;;;4994804;28;20551;-63
2022/09/07 14:17:07;;;;;;;7.03;6.40;;;;;;;;;;4993447;28;20383;-71
2022/09/07 14:19:46;;;;;;;7.05;6.45;;;;;;;;;;4993169;28;20435;-70
2022/09/07 14:22:11;;;;;;;7.20;6.60;;;;;;;;;;4991883;28;20030;-69
2022/09/07 14:24:38;;;;;;;6.63;6.17;;;;;;;;;;4994489;28;20468;-71
2022/09/07 14:27:04;;;;;;;7.05;6.43;;;;;;;;;;4992483;28;20282;-73
2022/09/07 14:29:31;;;;;;;7.28;6.60;;;;;;;;;;4993242;28;20038;-64
2022/09/07 14:31:58;;;;;;;6.68;6.18;;;;;;;;;;4992849;28;20033;-64
2022/09/07 14:34:25;;;;;;;7.35;6.75;;;;;;;;;;4993177;28;20426;-64
2022/09/07 14:36:51;;;;;;;7.28;6.50;;;;;;;;;;4993675;28;20097;-64